Brumley, Arkansas
Current Conditions -  °F | °C
As of 10:58 PM on Sunday 21 Dec 2014 (Local Time) from KLRF Reporting Station
Clear Clear  
Wind Chill: 44°   Ceiling: Unl
Heat Index: 46°   Visibility: 10mi
Dew Point: 37°   Wind: 5mph
Humidity: 71%   Direction: 90°E
Pressure: 29.87"   Gusts: NA
Location:  35.0822°N, 92.366°W
Report Text: KLRF 220458Z AUTO 09004KT 10SM CLR 08/03 A2987 RMK AO2 SLP118
Loading
Personal Weather Stations






























Interactive Weather Map New forecast layout! Learn more

10-Day Weather Forecast

Advertisements
Track Severe Weather on mobile